createdAt,value
2018-05-31T00:02:21.206Z,100834.47
2018-05-31T00:04:49.588Z,100832.34
2018-05-31T00:07:17.934Z,100828.83
2018-05-31T00:09:46.308Z,100827.05
2018-05-31T00:12:15.442Z,100829.66
2018-05-31T00:14:44.603Z,100828.83
2018-05-31T00:17:13.383Z,100833.76
2018-05-31T00:19:42.542Z,100833.76
2018-05-31T00:22:11.683Z,100833.14
2018-05-31T00:24:40.067Z,100830.73
2018-05-31T00:27:08.423Z,100829.42
2018-05-31T00:29:36.794Z,100830.78
2018-05-31T00:32:05.131Z,100825.17
2018-05-31T00:34:34.274Z,100815.58
2018-05-31T00:37:02.671Z,100823.32
2018-05-31T00:39:31.142Z,100817.20
2018-05-31T00:41:59.531Z,100812.38
2018-05-31T00:44:27.869Z,100817.91
2018-05-31T00:46:56.271Z,100814.83
2018-05-31T00:49:24.616Z,100812.53
2018-05-31T00:51:53.770Z,100806.25
2018-05-31T00:54:22.111Z,100800.13
2018-05-31T00:56:50.499Z,100798.83
2018-05-31T00:59:19.618Z,100797.33
2018-05-31T01:01:47.967Z,100786.11
2018-05-31T01:04:16.348Z,100794.08
2018-05-31T01:06:44.699Z,100794.23
2018-05-31T01:09:14.650Z,100791.07
2018-05-31T01:11:42.988Z,100794.97
2018-05-31T01:14:11.379Z,100793.20
2018-05-31T01:16:39.781Z,100787.52
2018-05-31T01:19:08.118Z,100789.26
2018-05-31T01:21:37.262Z,100787.48
2018-05-31T01:24:05.639Z,100785.27
2018-05-31T01:26:34.111Z,100788.90
2018-05-31T01:29:02.446Z,100782.67
2018-05-31T01:31:31.545Z,100791.55
2018-05-31T01:34:00.682Z,100788.04
2018-05-31T01:36:29.041Z,100785.55
2018-05-31T01:38:57.388Z,100789.55
2018-05-31T01:41:26.551Z,100783.03
2018-05-31T01:43:54.953Z,100778.53
2018-05-31T01:46:24.060Z,100781.37
2018-05-31T01:48:53.210Z,100780.18
2018-05-31T01:51:21.570Z,100782.03
2018-05-31T01:53:50.806Z,100782.74
2018-05-31T01:56:19.206Z,100783.41
2018-05-31T01:58:48.349Z,100792.06
2018-05-31T02:01:16.681Z,100788.18
2018-05-31T02:03:45.062Z,100787.41
2018-05-31T02:06:14.234Z,100789.88
2018-05-31T02:08:42.591Z,100791.50
2018-05-31T02:11:10.964Z,100791.88
2018-05-31T02:13:39.346Z,100788.92
2018-05-31T02:16:07.698Z,100789.91
2018-05-31T02:18:36.062Z,100792.36
2018-05-31T02:21:04.454Z,100790.66
2018-05-31T02:23:32.806Z,100796.20
2018-05-31T02:26:01.951Z,100792.25
2018-05-31T02:28:30.282Z,100800.39
2018-05-31T02:30:59.421Z,100790.13
2018-05-31T02:33:27.814Z,100794.36
2018-05-31T02:35:56.197Z,100794.20
2018-05-31T02:38:24.578Z,100794.67
2018-05-31T02:40:52.913Z,100793.44
2018-05-31T02:43:21.304Z,100787.31
2018-05-31T02:45:49.686Z,100794.77
2018-05-31T02:48:18.057Z,100793.87
2018-05-31T02:50:47.147Z,100797.21
2018-05-31T02:53:15.525Z,100787.62
2018-05-31T02:55:43.886Z,100795.95
2018-05-31T02:58:12.246Z,100793.43
2018-05-31T03:00:41.390Z,100791.25
2018-05-31T03:03:09.782Z,100790.13
2018-05-31T03:05:38.161Z,100793.34
2018-05-31T03:08:06.536Z,100797.30
2018-05-31T03:10:35.115Z,100791.91
2018-05-31T03:13:03.444Z,100790.63
2018-05-31T03:15:32.593Z,100796.39
2018-05-31T03:18:01.053Z,100793.90
2018-05-31T03:20:29.435Z,100795.94
2018-05-31T03:22:57.780Z,100792.43
2018-05-31T03:25:26.888Z,100792.00
2018-05-31T03:27:55.280Z,100797.69
2018-05-31T03:30:23.668Z,100797.98
2018-05-31T03:32:52.012Z,100805.48
2018-05-31T03:35:20.412Z,100802.14
2018-05-31T03:37:48.780Z,100804.35
2018-05-31T03:40:17.141Z,100807.77
2018-05-31T03:42:46.278Z,100809.03
2018-05-31T03:45:14.658Z,100811.63
2018-05-31T03:47:43.017Z,100809.39
2018-05-31T03:50:11.419Z,100812.94
2018-05-31T03:52:39.773Z,100811.75
2018-05-31T03:55:08.133Z,100816.28
2018-05-31T03:57:37.279Z,100813.63
2018-05-31T04:00:05.633Z,100820.34
2018-05-31T04:02:33.991Z,100818.63
2018-05-31T04:05:02.345Z,100815.55
2018-05-31T04:07:31.483Z,100818.96
2018-05-31T04:09:59.828Z,100820.84
2018-05-31T04:12:28.936Z,100818.22
2018-05-31T04:14:58.077Z,100806.40
2018-05-31T04:17:26.482Z,100810.34
2018-05-31T04:19:54.868Z,100815.38
2018-05-31T04:22:23.997Z,100811.22
2018-05-31T04:24:52.373Z,100807.13
2018-05-31T04:27:20.753Z,100808.88
2018-05-31T04:29:49.844Z,100802.52
2018-05-31T04:32:18.233Z,100809.20
2018-05-31T04:34:47.388Z,100813.88
2018-05-31T04:37:17.125Z,100804.72
2018-05-31T04:39:46.233Z,100808.27
2018-05-31T04:42:15.362Z,100809.66
2018-05-31T04:44:43.836Z,100813.09
2018-05-31T04:47:12.203Z,100813.72
2018-05-31T04:49:40.585Z,100816.59
2018-05-31T04:52:08.981Z,100812.41
2018-05-31T04:54:37.336Z,100808.95
2018-05-31T04:57:05.679Z,100812.94
2018-05-31T04:59:34.051Z,100809.27
2018-05-31T05:02:03.204Z,100802.10
2018-05-31T05:04:31.576Z,100804.42
2018-05-31T05:06:59.972Z,100802.58
2018-05-31T05:09:28.307Z,100805.31
2018-05-31T05:11:56.630Z,100810.44
2018-05-31T05:14:25.073Z,100806.18
2018-05-31T05:16:53.467Z,100809.52
2018-05-31T05:19:21.856Z,100808.70
2018-05-31T05:21:50.234Z,100802.25
2018-05-31T05:24:18.571Z,100804.29
2018-05-31T05:26:46.936Z,100802.83
2018-05-31T05:29:16.205Z,100802.19
2018-05-31T05:31:44.608Z,100807.05
2018-05-31T05:34:13.738Z,100805.23
2018-05-31T05:36:42.154Z,100808.25
2018-05-31T05:39:10.511Z,100795.27
2018-05-31T05:41:38.904Z,100805.06
2018-05-31T05:44:07.246Z,100805.49
2018-05-31T05:46:35.626Z,100803.75
2018-05-31T05:49:04.005Z,100805.11
2018-05-31T05:51:32.353Z,100810.83
2018-05-31T05:54:00.733Z,100811.03
2018-05-31T05:56:29.944Z,100812.75
2018-05-31T05:58:58.266Z,100813.06
2018-05-31T06:01:26.624Z,100813.77
2018-05-31T06:03:55.011Z,100810.50
2018-05-31T06:06:23.374Z,100810.08
2018-05-31T06:08:51.763Z,100811.95
2018-05-31T06:11:20.120Z,100815.44
2018-05-31T06:13:48.520Z,100815.47
2018-05-31T06:16:16.874Z,100816.48
2018-05-31T06:18:45.228Z,100811.14
2018-05-31T06:21:14.400Z,100817.83
2018-05-31T06:23:42.742Z,100819.38
2018-05-31T06:26:11.140Z,100823.51
2018-05-31T06:28:39.484Z,100820.31
2018-05-31T06:31:07.892Z,100822.07
2018-05-31T06:33:36.274Z,100822.14
2018-05-31T06:36:04.640Z,100818.47
2018-05-31T06:38:32.992Z,100823.12
2018-05-31T06:41:01.369Z,100820.66
2018-05-31T06:43:30.856Z,100821.88
2018-05-31T06:46:00.005Z,100827.03
2018-05-31T06:48:28.347Z,100821.46
2018-05-31T06:50:56.722Z,100817.23
2018-05-31T06:53:25.812Z,100817.87
2018-05-31T06:55:54.950Z,100813.25
2018-05-31T06:58:23.268Z,100817.73
2018-05-31T07:00:51.653Z,100812.36
2018-05-31T07:03:20.748Z,100818.11
2018-05-31T07:05:49.900Z,100822.17
2018-05-31T07:08:18.620Z,100818.88
2018-05-31T07:10:46.992Z,100820.48
2018-05-31T07:13:15.365Z,100820.64
2018-05-31T07:15:44.103Z,100825.08
2018-05-31T07:18:12.471Z,100822.11
2018-05-31T07:20:40.870Z,100822.08
2018-05-31T07:23:09.256Z,100821.71
2018-05-31T07:25:37.553Z,100821.05
2018-05-31T07:28:05.884Z,100827.22
2018-05-31T07:30:34.268Z,100827.77
2018-05-31T07:33:02.590Z,100831.11
2018-05-31T07:35:30.935Z,100826.95
2018-05-31T07:37:59.291Z,100827.81
2018-05-31T07:40:27.665Z,100828.19
2018-05-31T07:42:55.999Z,100835.09
2018-05-31T07:45:24.319Z,100830.47
2018-05-31T07:47:53.437Z,100825.92
2018-05-31T07:50:21.779Z,100829.78
2018-05-31T07:52:50.906Z,100829.56
2018-05-31T07:55:19.218Z,100829.56
2018-05-31T07:57:47.571Z,100826.41
2018-05-31T08:00:15.932Z,100835.28
2018-05-31T08:02:44.289Z,100840.34
2018-05-31T08:05:13.422Z,100836.77
2018-05-31T08:07:41.747Z,100833.57
2018-05-31T08:10:10.071Z,100839.46
2018-05-31T08:12:38.463Z,100835.14
2018-05-31T08:15:06.803Z,100839.53
2018-05-31T08:17:35.894Z,100841.75
2018-05-31T08:20:05.631Z,100839.74
2018-05-31T08:22:34.005Z,100848.35
2018-05-31T08:25:02.324Z,100838.59
2018-05-31T08:27:30.673Z,100838.37
2018-05-31T08:29:59.047Z,100840.17
2018-05-31T08:32:27.415Z,100842.73
2018-05-31T08:34:55.740Z,100847.09
2018-05-31T08:37:24.101Z,100846.09
2018-05-31T08:39:52.407Z,100838.66
2018-05-31T08:42:20.782Z,100846.78
2018-05-31T08:44:49.111Z,100843.02
2018-05-31T08:47:17.421Z,100842.67
2018-05-31T08:49:45.784Z,100848.88
2018-05-31T08:52:14.150Z,100845.16
2018-05-31T08:54:42.474Z,100845.06
2018-05-31T08:57:10.852Z,100843.33
2018-05-31T08:59:39.955Z,100844.55
2018-05-31T09:02:09.107Z,100835.23
2018-05-31T09:04:37.440Z,100835.11
2018-05-31T09:07:06.555Z,100831.51
2018-05-31T09:09:34.931Z,100824.63
2018-05-31T09:12:03.993Z,100828.98
2018-05-31T09:14:33.147Z,100833.96
2018-05-31T09:17:01.609Z,100830.23
2018-05-31T09:19:29.971Z,100830.62
2018-05-31T09:21:58.296Z,100823.58
2018-05-31T09:24:26.651Z,100829.38
2018-05-31T09:26:54.999Z,100828.14
2018-05-31T09:29:23.478Z,100822.09
2018-05-31T09:31:51.822Z,100827.54
2018-05-31T09:34:20.175Z,100817.39
2018-05-31T09:36:48.551Z,100823.08
2018-05-31T09:39:16.890Z,100814.92
2018-05-31T09:41:45.242Z,100814.95
2018-05-31T09:44:13.585Z,100817.55
2018-05-31T09:46:41.974Z,100825.20
2018-05-31T09:49:10.346Z,100822.41
2018-05-31T09:51:38.732Z,100817.78
2018-05-31T09:54:07.062Z,100817.52
2018-05-31T09:56:35.446Z,100814.27
2018-05-31T09:59:03.758Z,100819.02
2018-05-31T10:01:32.083Z,100816.52
2018-05-31T10:04:00.450Z,100819.03
2018-05-31T10:06:29.556Z,100807.52
2018-05-31T10:08:58.690Z,100808.41
2018-05-31T10:11:27.062Z,100809.59
2018-05-31T10:13:55.454Z,100817.38
2018-05-31T10:16:23.790Z,100811.95
2018-05-31T10:18:52.134Z,100808.36
2018-05-31T10:21:20.491Z,100808.36
2018-05-31T10:23:48.824Z,100808.80
2018-05-31T10:26:17.189Z,100801.48
2018-05-31T10:28:45.504Z,100805.94
2018-05-31T10:31:13.866Z,100798.93
2018-05-31T10:33:42.206Z,100796.73
2018-05-31T10:36:10.544Z,100794.95
2018-05-31T10:38:38.856Z,100788.06
2018-05-31T10:41:07.228Z,100797.92
2018-05-31T10:43:35.596Z,100800.25
2018-05-31T10:46:03.922Z,100793.95
2018-05-31T10:48:32.285Z,100790.87
2018-05-31T10:51:00.597Z,100799.73
2018-05-31T10:53:28.948Z,100788.16
2018-05-31T10:55:58.445Z,100780.85
2018-05-31T10:58:27.582Z,100782.45
2018-05-31T11:00:55.964Z,100771.98
2018-05-31T11:03:24.324Z,100779.47
2018-05-31T11:05:52.686Z,100776.31
2018-05-31T11:08:21.119Z,100775.27
2018-05-31T11:10:49.490Z,100778.42
2018-05-31T11:13:17.829Z,100772.04
2018-05-31T11:15:46.305Z,100763.88
2018-05-31T11:18:14.699Z,100766.23
2018-05-31T11:20:43.075Z,100768.38
2018-05-31T11:23:11.438Z,100755.17
2018-05-31T11:25:39.947Z,100759.54
2018-05-31T11:28:08.286Z,100766.42
2018-05-31T11:30:37.381Z,100757.93
2018-05-31T11:33:06.550Z,100753.72
2018-05-31T11:35:34.950Z,100753.75
2018-05-31T11:38:04.326Z,100750.14
2018-05-31T11:40:32.716Z,100745.83
2018-05-31T11:43:01.121Z,100750.16
2018-05-31T11:45:29.494Z,100746.81
2018-05-31T11:47:58.662Z,100740.59
2018-05-31T11:50:27.002Z,100736.31
2018-05-31T11:52:55.378Z,100740.17
2018-05-31T11:55:23.720Z,100740.75
2018-05-31T11:57:52.862Z,100728.32
2018-05-31T12:00:21.212Z,100732.58
2018-05-31T12:02:49.560Z,100731.02
2018-05-31T12:05:18.668Z,100735.86
2018-05-31T12:07:47.027Z,100726.32
2018-05-31T12:10:15.400Z,100722.78
2018-05-31T12:12:43.765Z,100719.65
2018-05-31T12:15:12.214Z,100720.83
2018-05-31T12:17:40.626Z,100710.67
2018-05-31T12:20:08.972Z,100713.47
2018-05-31T12:22:37.360Z,100721.06
2018-05-31T12:25:05.716Z,100717.23
2018-05-31T12:27:34.071Z,100715.34
2018-05-31T12:30:03.258Z,100721.94
2018-05-31T12:32:32.429Z,100719.33
2018-05-31T12:35:00.806Z,100719.97
2018-05-31T12:37:29.184Z,100716.38
2018-05-31T12:39:57.528Z,100713.22
2018-05-31T12:42:25.895Z,100708.41
2018-05-31T12:44:54.261Z,100707.84
2018-05-31T12:47:22.672Z,100704.86
2018-05-31T12:49:51.045Z,100706.21
2018-05-31T12:52:19.446Z,100696.80
2018-05-31T12:54:47.827Z,100692.26
2018-05-31T12:57:16.229Z,100691.16
2018-05-31T12:59:44.573Z,100699.48
2018-05-31T13:02:12.961Z,100695.67
2018-05-31T13:04:41.301Z,100690.70
2018-05-31T13:07:09.680Z,100680.95
2018-05-31T13:09:38.009Z,100687.87
2018-05-31T13:12:06.345Z,100682.31
2018-05-31T13:14:34.706Z,100673.47
2018-05-31T13:17:03.086Z,100678.63
2018-05-31T13:19:31.452Z,100676.68
2018-05-31T13:21:59.775Z,100669.33
2018-05-31T13:24:28.121Z,100676.45
2018-05-31T13:26:56.493Z,100678.89
2018-05-31T13:29:24.914Z,100664.26
2018-05-31T13:31:53.238Z,100669.83
2018-05-31T13:34:22.358Z,100667.31
2018-05-31T13:36:50.722Z,100663.30
2018-05-31T13:39:19.095Z,100669.45
2018-05-31T13:41:47.435Z,100663.70
2018-05-31T13:44:15.780Z,100660.22
2018-05-31T13:46:44.160Z,100665.05
2018-05-31T13:49:12.505Z,100660.03
2018-05-31T13:51:40.884Z,100652.22
2018-05-31T13:54:09.248Z,100654.91
2018-05-31T13:56:38.383Z,100648.56
2018-05-31T13:59:06.736Z,100655.84
2018-05-31T14:01:35.895Z,100648.36
2018-05-31T14:04:04.258Z,100646.73
2018-05-31T14:06:32.769Z,100650.01
2018-05-31T14:09:01.236Z,100647.99
2018-05-31T14:11:29.593Z,100640.73
2018-05-31T14:13:57.947Z,100643.38
2018-05-31T14:16:26.333Z,100648.45
2018-05-31T14:18:54.670Z,100643.41
2018-05-31T14:21:23.755Z,100644.63
2018-05-31T14:23:52.118Z,100637.59
2018-05-31T14:26:20.532Z,100630.98
2018-05-31T14:28:48.919Z,100629.28
2018-05-31T14:31:17.304Z,100625.61
2018-05-31T14:33:45.712Z,100626.78
2018-05-31T14:36:14.293Z,100622.15
2018-05-31T14:38:42.688Z,100621.84
2018-05-31T14:41:11.188Z,100614.62
2018-05-31T14:46:08.012Z,100618.75
2018-05-31T14:48:36.577Z,100620.77
2018-05-31T14:51:05.017Z,100624.67
2018-05-31T14:53:35.353Z,100622.88
2018-05-31T14:56:04.552Z,100627.32
2018-05-31T14:58:32.948Z,100622.30
2018-05-31T15:01:01.371Z,100619.63
2018-05-31T15:03:29.754Z,100624.06
2018-05-31T15:05:58.109Z,100616.47
2018-05-31T15:08:26.590Z,100617.09
2018-05-31T15:10:54.938Z,100613.11
2018-05-31T15:13:23.342Z,100611.85
2018-05-31T15:15:51.696Z,100608.69
2018-05-31T15:18:20.136Z,100608.57
2018-05-31T15:20:48.518Z,100597.95
2018-05-31T15:23:16.856Z,100599.25
2018-05-31T15:25:45.255Z,100596.22
2018-05-31T15:28:13.714Z,100590.16
2018-05-31T15:30:42.092Z,100600.00
2018-05-31T15:33:11.182Z,100589.77
2018-05-31T15:35:39.556Z,100586.05
2018-05-31T15:38:09.150Z,100590.52
2018-05-31T15:40:37.502Z,100593.63
2018-05-31T15:43:06.608Z,100585.98
2018-05-31T15:45:35.748Z,100581.71
2018-05-31T15:48:04.082Z,100580.84
2018-05-31T15:50:32.434Z,100577.63
2018-05-31T15:53:00.807Z,100573.70
2018-05-31T15:55:29.186Z,100573.81
2018-05-31T15:57:57.532Z,100570.81
2018-05-31T16:00:25.878Z,100577.61
2018-05-31T16:02:54.243Z,100574.44
2018-05-31T16:05:23.403Z,100573.97
2018-05-31T16:07:51.778Z,100575.98
2018-05-31T16:10:20.135Z,100576.87
2018-05-31T16:12:52.474Z,100569.19
2018-05-31T16:15:20.868Z,100579.26
2018-05-31T16:17:49.266Z,100577.05
2018-05-31T16:20:17.680Z,100581.61
2018-05-31T16:22:46.938Z,100580.11
2018-05-31T16:25:15.344Z,100574.73
2018-05-31T16:27:43.800Z,100571.33
2018-05-31T16:30:12.190Z,100573.50
2018-05-31T16:32:40.642Z,100570.16
2018-05-31T16:35:09.885Z,100568.13
2018-05-31T16:37:38.247Z,100565.80
2018-05-31T16:40:06.723Z,100571.57
2018-05-31T16:42:35.217Z,100564.39
2018-05-31T16:45:03.649Z,100565.31
2018-05-31T16:47:32.032Z,100561.39
2018-05-31T16:50:00.395Z,100556.70
2018-05-31T16:52:28.835Z,100555.75
2018-05-31T16:54:57.487Z,100554.28
2018-05-31T16:57:26.319Z,100556.84
2018-05-31T16:59:54.693Z,100551.94
2018-05-31T17:02:23.067Z,100550.39
2018-05-31T17:04:51.530Z,100551.14
2018-05-31T17:07:19.976Z,100553.76
2018-05-31T17:09:48.356Z,100555.44
2018-05-31T17:12:17.571Z,100556.36
2018-05-31T17:14:46.132Z,100558.30
2018-05-31T17:17:14.585Z,100553.45
2018-05-31T17:19:43.766Z,100563.49
2018-05-31T17:22:12.293Z,100563.27
2018-05-31T17:24:40.757Z,100558.61
2018-05-31T17:27:09.123Z,100557.04
2018-05-31T17:29:39.379Z,100557.16
2018-05-31T17:32:07.957Z,100562.95
2018-05-31T17:34:36.336Z,100560.32
2018-05-31T17:37:04.911Z,100561.94
2018-05-31T17:39:34.545Z,100568.23
2018-05-31T17:42:03.041Z,100561.56
2018-05-31T17:44:35.279Z,100576.94
2018-05-31T17:47:03.670Z,100582.81
2018-05-31T17:49:32.107Z,100585.16
2018-05-31T17:52:00.559Z,100582.17
2018-05-31T17:54:28.966Z,100579.75
2018-05-31T17:56:58.115Z,100581.25
2018-05-31T17:59:27.590Z,100586.34
2018-05-31T18:01:56.099Z,100583.73
2018-05-31T18:04:24.537Z,100577.39
2018-05-31T18:06:52.925Z,100580.63
2018-05-31T18:09:21.283Z,100582.31
2018-05-31T18:11:50.442Z,100584.58
2018-05-31T18:14:19.027Z,100583.78
2018-05-31T18:16:47.532Z,100583.63
2018-05-31T18:19:15.968Z,100585.27
2018-05-31T18:21:44.437Z,100590.05
2018-05-31T18:24:12.862Z,100589.08
2018-05-31T18:26:43.280Z,100591.90
2018-05-31T18:29:11.680Z,100590.23
2018-05-31T18:31:40.235Z,100591.84
2018-05-31T18:34:10.188Z,100593.88
2018-05-31T18:36:38.783Z,100597.51
2018-05-31T18:39:07.946Z,100596.20
2018-05-31T18:41:36.367Z,100601.44
2018-05-31T18:44:04.773Z,100602.54
2018-05-31T18:46:33.142Z,100602.08
2018-05-31T18:49:02.306Z,100604.56
2018-05-31T18:51:31.896Z,100604.03
2018-05-31T18:54:01.070Z,100610.95
2018-05-31T18:56:29.455Z,100610.44
2018-05-31T18:58:57.938Z,100615.08
2018-05-31T19:01:27.166Z,100617.46
2018-05-31T19:03:55.907Z,100626.66
2018-05-31T19:06:24.582Z,100636.03
2018-05-31T19:08:53.010Z,100635.05
2018-05-31T19:11:22.373Z,100641.63
2018-05-31T19:13:56.538Z,100642.08
2018-05-31T19:16:25.029Z,100649.06
2018-05-31T19:18:59.342Z,100652.86
2018-05-31T19:21:28.770Z,100655.33
2018-05-31T19:23:57.241Z,100658.12
2018-05-31T19:26:25.785Z,100662.03
2018-05-31T19:28:55.121Z,100664.69
2018-05-31T19:31:24.773Z,100674.06
2018-05-31T19:33:55.262Z,100672.41
2018-05-31T19:36:29.391Z,100670.17
2018-05-31T19:38:57.870Z,100671.64
2018-05-31T19:41:27.008Z,100674.66
2018-05-31T19:47:02.971Z,100683.41
2018-05-31T19:49:32.478Z,100681.55
2018-05-31T19:52:06.476Z,100682.95
2018-05-31T19:54:34.871Z,100682.94
2018-05-31T19:57:04.617Z,100685.42
2018-05-31T19:59:38.578Z,100677.24
2018-05-31T20:02:12.842Z,100677.85
2018-05-31T20:04:41.910Z,100684.47
2018-05-31T20:07:11.059Z,100685.06
2018-05-31T20:09:39.426Z,100689.84
2018-05-31T20:12:07.802Z,100683.55
2018-05-31T20:14:36.126Z,100688.03
2018-05-31T20:17:04.513Z,100690.48
2018-05-31T20:19:33.733Z,100690.64
2018-05-31T20:22:02.854Z,100687.72
2018-05-31T20:24:31.225Z,100688.25
2018-05-31T20:26:59.593Z,100686.32
2018-05-31T20:29:27.988Z,100684.85
2018-05-31T20:31:56.364Z,100691.88
2018-05-31T20:34:24.747Z,100690.35
2018-05-31T20:36:53.086Z,100691.86
2018-05-31T20:39:22.241Z,100697.76
2018-05-31T20:41:50.595Z,100691.17
2018-05-31T20:44:18.956Z,100695.31
2018-05-31T20:46:47.285Z,100689.58
2018-05-31T20:49:16.032Z,100692.73
2018-05-31T20:51:44.876Z,100689.05
2018-05-31T20:54:13.990Z,100685.24
2018-05-31T20:56:42.735Z,100688.46
2018-05-31T20:59:11.124Z,100683.63
2018-05-31T21:01:39.448Z,100690.69
2018-05-31T21:04:07.777Z,100687.63
2018-05-31T21:06:36.123Z,100688.58
2018-05-31T21:09:04.486Z,100686.84
2018-05-31T21:11:32.853Z,100694.11
2018-05-31T21:14:01.190Z,100690.14
2018-05-31T21:16:29.552Z,100688.52
2018-05-31T21:18:58.330Z,100689.14
2018-05-31T21:21:26.681Z,100687.38
2018-05-31T21:23:55.037Z,100687.92
2018-05-31T21:26:24.147Z,100690.78
2018-05-31T21:28:52.533Z,100690.11
2018-05-31T21:31:21.001Z,100684.27
2018-05-31T21:33:49.335Z,100687.23
2018-05-31T21:36:17.799Z,100689.38
2018-05-31T21:38:46.176Z,100689.16
2018-05-31T21:41:14.558Z,100690.84
2018-05-31T21:43:42.831Z,100688.91
2018-05-31T21:46:11.205Z,100688.58
2018-05-31T21:48:39.561Z,100683.13
2018-05-31T21:51:07.929Z,100689.70
2018-05-31T21:53:36.265Z,100686.58
2018-05-31T21:56:04.615Z,100693.38
2018-05-31T21:58:33.001Z,100688.57
2018-05-31T22:01:01.463Z,100690.91
2018-05-31T22:03:29.821Z,100689.11
2018-05-31T22:05:58.620Z,100693.39
2018-05-31T22:08:27.016Z,100688.80
2018-05-31T22:10:55.406Z,100685.47
2018-05-31T22:13:23.792Z,100686.56
2018-05-31T22:15:52.157Z,100693.14
2018-05-31T22:18:20.617Z,100696.22
2018-05-31T22:20:49.733Z,100695.75
2018-05-31T22:23:18.076Z,100689.98
2018-05-31T22:25:46.456Z,100692.25
2018-05-31T22:28:14.828Z,100687.73
2018-05-31T22:30:43.241Z,100689.33
2018-05-31T22:33:11.592Z,100686.31
2018-05-31T22:36:03.312Z,100689.20
2018-05-31T22:38:31.664Z,100683.28
2018-05-31T22:41:00.040Z,100683.93
2018-05-31T22:43:28.417Z,100688.19
2018-05-31T22:45:56.811Z,100690.17
2018-05-31T22:48:25.937Z,100686.44
2018-05-31T22:50:54.306Z,100683.41
2018-05-31T22:53:22.647Z,100678.78
2018-05-31T22:55:51.013Z,100680.03
2018-05-31T22:58:19.385Z,100671.56
2018-05-31T23:00:47.714Z,100674.53
2018-05-31T23:03:16.086Z,100679.02
2018-05-31T23:05:44.408Z,100675.46
2018-05-31T23:08:12.748Z,100675.37
2018-05-31T23:10:41.115Z,100668.95
2018-05-31T23:13:09.466Z,100672.13
2018-05-31T23:15:37.856Z,100659.80
2018-05-31T23:18:06.958Z,100662.98
2018-05-31T23:20:36.200Z,100668.08
2018-05-31T23:23:04.555Z,100667.68
2018-05-31T23:25:32.866Z,100664.25
2018-05-31T23:28:01.212Z,100665.83
2018-05-31T23:30:29.635Z,100670.50
2018-05-31T23:32:57.963Z,100665.67
2018-05-31T23:35:26.407Z,100671.88
2018-05-31T23:37:55.289Z,100668.52
2018-05-31T23:40:23.622Z,100664.30
2018-05-31T23:42:51.957Z,100663.61
2018-05-31T23:45:21.111Z,100663.27
2018-05-31T23:47:49.503Z,100666.55
2018-05-31T23:50:17.878Z,100665.99
2018-05-31T23:52:46.197Z,100665.78
2018-05-31T23:55:15.330Z,100665.22
2018-05-31T23:57:44.851Z,100667.00
